Time;durP1;ratioP1;P1;durP2;ratioP2;P2;SDS_P1;SDS_P2;PMS_P1;PMS_P2;Temp;Humidity;BMP_temperature;BMP_pressure;BME280_temperature;BME280_humidity;BME280_pressure;Samples;Min_cycle;Max_cycle;Signal;HPM_P1;HPM_P2
2023/08/01 00:01:41;;;;;;;24.80;17.67;;;;;;;15.62;100.00;99782.75;5050341;28;20025;-62
2023/08/01 00:04:06;;;;;;;23.33;17.05;;;;;;;15.60;100.00;99786.72;5050343;28;20483;-62
2023/08/01 00:06:32;;;;;;;23.10;17.35;;;;;;;15.60;100.00;99783.91;5050211;28;20024;-62
2023/08/01 00:08:57;;;;;;;24.88;18.13;;;;;;;15.56;100.00;99779.44;5050446;28;20076;-62
2023/08/01 00:11:22;;;;;;;23.33;17.08;;;;;;;15.52;100.00;99772.97;5050311;28;20469;-62
2023/08/01 00:13:48;;;;;;;24.75;18.27;;;;;;;15.50;100.00;99756.63;5050262;28;20392;-62
2023/08/01 00:16:13;;;;;;;25.38;18.48;;;;;;;15.49;100.00;99757.00;5050271;28;20027;-62
2023/08/01 00:18:38;;;;;;;25.65;18.38;;;;;;;15.43;100.00;99760.06;5050155;28;20481;-63
2023/08/01 00:21:09;;;;;;;25.88;18.77;;;;;;;15.47;100.00;99751.78;5048511;28;20029;-62
2023/08/01 00:23:35;;;;;;;25.38;18.75;;;;;;;15.47;100.00;99742.63;5050457;28;20028;-62
2023/08/01 00:26:01;;;;;;;25.17;17.92;;;;;;;15.47;100.00;99746.19;5050200;28;20369;-62
2023/08/01 00:28:26;;;;;;;26.08;18.25;;;;;;;15.48;100.00;99756.19;5048760;28;20074;-62
2023/08/01 00:31:04;;;;;;;24.80;17.67;;;;;;;15.47;100.00;99757.34;5049858;28;20049;-62
2023/08/01 00:33:30;;;;;;;25.58;17.83;;;;;;;15.49;100.00;99754.22;5048581;28;20062;-62
2023/08/01 00:35:55;;;;;;;24.08;17.77;;;;;;;15.46;100.00;99744.59;5050099;28;20017;-62
2023/08/01 00:38:20;;;;;;;24.30;17.73;;;;;;;15.50;100.00;99750.22;5049973;28;20036;-62
2023/08/01 00:40:46;;;;;;;23.13;17.17;;;;;;;15.48;100.00;99745.03;5052713;28;20025;-64
2023/08/01 00:43:12;;;;;;;22.17;16.27;;;;;;;15.47;100.00;99740.63;5052312;28;20029;-62
2023/08/01 00:45:37;;;;;;;23.17;16.52;;;;;;;15.47;100.00;99748.19;5053520;28;20415;-63
2023/08/01 00:48:03;;;;;;;22.73;15.85;;;;;;;15.46;100.00;99739.00;5053328;28;20036;-62
2023/08/01 00:50:28;;;;;;;23.42;15.52;;;;;;;15.46;100.00;99741.78;5053717;28;20485;-62
2023/08/01 00:52:54;;;;;;;22.45;14.95;;;;;;;15.46;100.00;99741.00;5053324;28;20106;-62
2023/08/01 00:55:22;;;;;;;22.77;15.77;;;;;;;15.45;100.00;99740.19;5053365;28;20029;-62
2023/08/01 00:57:47;;;;;;;21.52;15.35;;;;;;;15.44;100.00;99739.38;5053240;28;20032;-62
2023/08/01 01:00:13;;;;;;;23.55;16.25;;;;;;;15.43;100.00;99734.97;5051736;28;20033;-63
2023/08/01 01:02:38;;;;;;;22.90;15.80;;;;;;;15.43;100.00;99740.56;5053086;28;20032;-63
2023/08/01 01:05:05;;;;;;;20.40;14.85;;;;;;;15.42;100.00;99740.94;5053381;28;20025;-63
2023/08/01 01:07:31;;;;;;;23.33;15.68;;;;;;;15.44;100.00;99741.38;5053333;28;20124;-63
2023/08/01 01:09:58;;;;;;;23.38;16.00;;;;;;;15.43;100.00;99743.34;5052956;28;20071;-63
2023/08/01 01:12:23;;;;;;;20.50;14.52;;;;;;;15.43;100.00;99743.34;5053022;28;20451;-63
2023/08/01 01:14:48;;;;;;;22.55;14.85;;;;;;;15.41;100.00;99737.31;5053036;28;20108;-62
2023/08/01 01:17:14;;;;;;;21.48;13.98;;;;;;;15.41;100.00;99742.91;5052845;28;20056;-63
2023/08/01 01:19:39;;;;;;;22.75;14.85;;;;;;;15.39;100.00;99730.50;5052925;28;20420;-62
2023/08/01 01:22:07;;;;;;;21.10;14.80;;;;;;;15.37;100.00;99730.06;5052879;28;20059;-63
2023/08/01 01:24:35;;;;;;;22.95;15.05;;;;;;;15.36;100.00;99728.44;5052815;28;20037;-62
2023/08/01 01:27:03;;;;;;;22.30;15.63;;;;;;;15.33;100.00;99731.97;5052703;28;20049;-63
2023/08/01 01:29:29;;;;;;;25.23;14.57;;;;;;;15.28;100.00;99733.88;5052750;28;20057;-62
2023/08/01 01:31:55;;;;;;;22.73;14.90;;;;;;;15.25;100.00;99734.63;5052720;28;20029;-63
2023/08/01 01:34:21;;;;;;;22.60;15.38;;;;;;;15.21;100.00;99732.94;5052575;28;20036;-63
2023/08/01 01:36:46;;;;;;;23.83;15.20;;;;;;;15.18;100.00;99731.66;5052558;28;20032;-63
2023/08/01 01:39:11;;;;;;;23.05;15.00;;;;;;;15.13;100.00;99723.59;5052510;28;20025;-63
2023/08/01 01:41:37;;;;;;;20.90;14.55;;;;;;;15.07;100.00;99719.47;5052648;28;20459;-62
2023/08/01 01:44:02;;;;;;;21.10;15.05;;;;;;;15.06;100.00;99731.81;5052492;28;20442;-63
2023/08/01 01:46:27;;;;;;;22.17;16.17;;;;;;;15.02;100.00;99728.91;5052462;28;20027;-63
2023/08/01 01:48:53;;;;;;;22.17;15.52;;;;;;;15.03;100.00;99726.97;5052440;28;20033;-62
2023/08/01 01:51:20;;;;;;;23.55;15.20;;;;;;;15.03;100.00;99732.53;5052310;28;20068;-63
2023/08/01 01:53:46;;;;;;;24.27;16.58;;;;;;;15.02;100.00;99728.91;5052199;28;20049;-62
2023/08/01 01:56:11;;;;;;;23.75;16.52;;;;;;;14.98;100.00;99714.91;5052342;28;20060;-63
2023/08/01 01:58:36;;;;;;;26.63;16.95;;;;;;;15.05;100.00;99728.19;5052165;28;20120;-62
2023/08/01 02:01:01;;;;;;;23.50;16.75;;;;;;;15.04;100.00;99726.59;5052099;28;20040;-63
2023/08/01 02:03:27;;;;;;;23.00;16.35;;;;;;;15.04;100.00;99718.22;5052014;28;20032;-63
2023/08/01 02:05:52;;;;;;;23.55;17.70;;;;;;;15.04;100.00;99715.44;5052011;28;20078;-63
2023/08/01 02:08:17;;;;;;;25.17;16.83;;;;;;;15.02;100.00;99722.56;5052126;28;20037;-63
2023/08/01 02:10:43;;;;;;;25.80;17.25;;;;;;;15.01;100.00;99718.97;5051962;28;20770;-63
2023/08/01 02:13:08;;;;;;;26.45;16.80;;;;;;;14.97;100.00;99718.09;5052009;28;20122;-63
2023/08/01 02:15:34;;;;;;;24.02;16.80;;;;;;;14.95;100.00;99717.63;5051630;28;20503;-63
2023/08/01 02:17:59;;;;;;;24.25;16.30;;;;;;;14.94;100.00;99718.78;5051718;28;20036;-62
2023/08/01 02:20:24;;;;;;;24.00;17.60;;;;;;;14.91;100.00;99719.53;5050391;28;20021;-63
2023/08/01 02:22:50;;;;;;;27.63;16.75;;;;;;;14.89;100.00;99717.09;5051580;28;20029;-63
2023/08/01 02:25:15;;;;;;;26.52;17.17;;;;;;;14.89;100.00;99725.47;5051557;28;20064;-63
2023/08/01 02:27:41;;;;;;;27.27;17.10;;;;;;;14.87;100.00;99727.81;5051585;28;20083;-63
2023/08/01 02:30:06;;;;;;;25.42;17.25;;;;;;;14.88;100.00;99729.41;5051415;28;20127;-63
2023/08/01 02:32:32;;;;;;;24.77;17.10;;;;;;;14.88;100.00;99726.63;5050272;28;20025;-63
2023/08/01 02:34:57;;;;;;;24.42;16.67;;;;;;;14.88;100.00;99723.84;5051525;28;20108;-63
2023/08/01 02:37:22;;;;;;;28.42;17.13;;;;;;;14.87;100.00;99725.03;5051449;28;20036;-63
2023/08/01 02:39:48;;;;;;;26.83;16.33;;;;;;;14.86;100.00;99726.19;5051489;28;20111;-63
2023/08/01 02:42:13;;;;;;;26.38;16.98;;;;;;;14.85;100.00;99732.94;5051372;28;20028;-63
2023/08/01 02:44:38;;;;;;;25.83;17.67;;;;;;;14.86;100.00;99728.97;5051336;28;20381;-63
2023/08/01 02:47:05;;;;;;;24.35;17.00;;;;;;;14.84;100.00;99734.09;5051204;28;20021;-63
2023/08/01 02:49:31;;;;;;;27.30;16.60;;;;;;;14.84;100.00;99739.66;5051308;28;20106;-63
2023/08/01 02:51:56;;;;;;;25.40;16.95;;;;;;;14.80;100.00;99738.78;5051151;28;20500;-63
2023/08/01 02:54:21;;;;;;;25.67;17.95;;;;;;;14.80;100.00;99742.38;5049800;28;20096;-63
2023/08/01 02:56:47;;;;;;;27.40;17.83;;;;;;;14.76;100.00;99741.47;5051068;28;20048;-63
2023/08/01 02:59:12;;;;;;;25.83;17.65;;;;;;;14.74;100.00;99741.03;5050997;28;20048;-63
2023/08/01 03:01:38;;;;;;;26.13;17.58;;;;;;;14.70;100.00;99734.56;5050770;28;20051;-63
2023/08/01 03:04:05;;;;;;;27.13;18.50;;;;;;;14.67;100.00;99740.84;5050852;28;20025;-63
2023/08/01 03:06:33;;;;;;;26.45;18.27;;;;;;;14.64;100.00;99736.00;5051006;28;20025;-63
2023/08/01 03:08:59;;;;;;;26.67;18.73;;;;;;;14.61;100.00;99733.94;5050819;28;20043;-63
2023/08/01 03:11:24;;;;;;;28.23;18.55;;;;;;;14.59;100.00;99728.72;5050876;28;20195;-63
2023/08/01 03:13:50;;;;;;;27.58;19.00;;;;;;;14.58;100.00;99729.06;5050886;28;20047;-63
2023/08/01 03:16:16;;;;;;;27.33;19.13;;;;;;;14.53;100.00;99732.16;5050816;28;20021;-63
2023/08/01 03:18:41;;;;;;;30.45;20.50;;;;;;;14.50;100.00;99726.13;5050799;28;20025;-63
2023/08/01 03:21:07;;;;;;;28.48;20.02;;;;;;;14.48;100.00;99731.25;5050950;28;20136;-63
2023/08/01 03:23:33;;;;;;;29.88;20.83;;;;;;;14.50;100.00;99730.88;5050819;28;20124;-63
2023/08/01 03:25:58;;;;;;;30.15;20.27;;;;;;;14.50;100.00;99745.59;5049472;28;20033;-63
2023/08/01 03:28:24;;;;;;;30.02;19.45;;;;;;;14.51;100.00;99735.28;5050746;28;20111;-63
2023/08/01 03:30:50;;;;;;;30.80;21.48;;;;;;;14.52;100.00;99734.09;5050474;28;20167;-63
2023/08/01 03:33:16;;;;;;;28.75;21.08;;;;;;;14.51;100.00;99733.31;5050904;28;20196;-63
2023/08/01 03:35:41;;;;;;;29.40;20.55;;;;;;;14.53;100.00;99743.28;5050732;28;20460;-63
2023/08/01 03:38:06;;;;;;;30.92;20.50;;;;;;;14.54;100.00;99737.34;5050602;28;20025;-63
2023/08/01 03:40:32;;;;;;;30.15;21.70;;;;;;;14.54;100.00;99737.34;5050632;28;20025;-63
2023/08/01 03:42:57;;;;;;;36.53;21.67;;;;;;;14.58;100.00;99745.78;5050897;28;20029;-63
2023/08/01 03:45:23;;;;;;;32.03;21.52;;;;;;;14.55;100.00;99741.75;5050646;28;20386;-63
2023/08/01 03:47:48;;;;;;;33.13;22.25;;;;;;;14.58;100.00;99746.59;5050621;28;20100;-63
2023/08/01 03:50:13;;;;;;;32.10;22.25;;;;;;;14.59;100.00;99739.88;5050598;28;20515;-63
2023/08/01 03:52:39;;;;;;;32.42;23.27;;;;;;;14.59;100.00;99739.03;5050645;28;20040;-63
2023/08/01 03:55:05;;;;;;;32.78;23.45;;;;;;;14.60;100.00;99735.88;5050582;28;20033;-63
2023/08/01 03:57:30;;;;;;;32.53;24.15;;;;;;;14.58;100.00;99743.81;5050422;28;20033;-63
2023/08/01 03:59:55;;;;;;;32.25;24.25;;;;;;;14.58;100.00;99738.25;5048982;28;20025;-63
2023/08/01 04:02:21;;;;;;;33.85;23.88;;;;;;;14.60;100.00;99749.00;5049017;28;20032;-63
2023/08/01 04:04:46;;;;;;;33.72;24.08;;;;;;;14.60;100.00;99754.56;5050695;28;20033;-63
2023/08/01 04:07:11;;;;;;;33.78;22.95;;;;;;;14.58;100.00;99748.56;5050381;28;20111;-64
2023/08/01 04:09:38;;;;;;;33.90;23.95;;;;;;;14.58;100.00;99748.56;5050325;28;20040;-63
2023/08/01 04:12:06;;;;;;;34.80;23.88;;;;;;;14.58;100.00;99746.59;5050160;28;20048;-63
2023/08/01 04:14:31;;;;;;;33.92;23.60;;;;;;;14.58;100.00;99743.00;5051358;28;20123;-63
2023/08/01 04:16:57;;;;;;;34.35;23.55;;;;;;;14.57;100.00;99749.72;5053960;28;20373;-63
2023/08/01 04:19:23;;;;;;;32.67;24.25;;;;;;;14.56;100.00;99746.16;5053868;28;20029;-63
2023/08/01 04:21:48;;;;;;;32.80;23.83;;;;;;;14.58;100.00;99749.38;5053896;28;20033;-63
2023/08/01 04:24:13;;;;;;;33.92;24.08;;;;;;;14.60;100.00;99749.81;5053849;28;20021;-63
2023/08/01 04:26:39;;;;;;;34.42;24.38;;;;;;;14.59;100.00;99745.44;5053794;28;20029;-63
2023/08/01 04:29:04;;;;;;;33.28;23.13;;;;;;;14.64;100.00;99752.69;5054157;28;20456;-64
2023/08/01 04:31:29;;;;;;;33.97;23.45;;;;;;;14.65;100.00;99748.72;5054137;28;20369;-63
2023/08/01 04:33:55;;;;;;;34.03;23.00;;;;;;;14.66;100.00;99742.00;5053818;28;20373;-63
2023/08/01 04:36:20;;;;;;;35.00;22.70;;;;;;;14.66;100.00;99744.78;5053763;28;20445;-63
2023/08/01 04:38:46;;;;;;;34.63;22.90;;;;;;;14.67;100.00;99746.44;5052147;28;20025;-63
2023/08/01 04:41:11;;;;;;;37.45;23.23;;;;;;;14.72;100.00;99745.34;5053709;28;20033;-63
2023/08/01 04:43:36;;;;;;;36.03;23.08;;;;;;;14.70;100.00;99751.28;5053653;28;20098;-63
2023/08/01 04:46:01;;;;;;;32.55;22.17;;;;;;;14.73;100.00;99755.31;5053543;28;20036;-63
2023/08/01 04:48:27;;;;;;;34.03;22.80;;;;;;;14.76;100.00;99758.19;5053381;28;20036;-63
2023/08/01 04:50:52;;;;;;;33.45;22.52;;;;;;;14.81;100.00;99757.09;5052053;28;20095;-63
2023/08/01 04:53:17;;;;;;;33.58;22.33;;;;;;;14.87;100.00;99752.06;5053439;28;20110;-63
2023/08/01 04:55:43;;;;;;;35.22;22.10;;;;;;;14.94;100.00;99757.78;5053614;28;20053;-63
2023/08/01 04:58:08;;;;;;;31.58;21.75;;;;;;;15.01;100.00;99766.31;5053322;28;20033;-63
2023/08/01 05:00:33;;;;;;;32.92;22.00;;;;;;;15.07;100.00;99764.88;5053439;28;20029;-63
2023/08/01 05:02:59;;;;;;;34.00;22.85;;;;;;;15.10;100.00;99766.09;5051924;28;20044;-63
2023/08/01 05:05:24;;;;;;;32.42;23.63;;;;;;;15.13;100.00;99771.75;5053608;28;20821;-63
2023/08/01 05:07:49;;;;;;;33.97;23.00;;;;;;;15.18;100.00;99778.22;5053191;28;20093;-63
2023/08/01 05:10:15;;;;;;;31.80;22.85;;;;;;;15.21;100.00;99769.94;5053250;28;20473;-63
2023/08/01 05:12:40;;;;;;;33.10;21.65;;;;;;;15.25;100.00;99764.44;5053080;28;20021;-63
2023/08/01 05:15:06;;;;;;;32.72;22.42;;;;;;;15.30;100.00;99769.75;5053175;28;20051;-64
2023/08/01 05:17:31;;;;;;;29.70;22.00;;;;;;;15.29;100.00;99776.50;5052969;28;20052;-63
2023/08/01 05:19:56;;;;;;;33.67;22.15;;;;;;;15.23;100.00;99770.41;5053027;28;20469;-63
2023/08/01 05:22:22;;;;;;;31.02;22.42;;;;;;;15.21;100.00;99766.38;5052979;28;20025;-64
2023/08/01 05:24:47;;;;;;;31.27;21.83;;;;;;;15.16;100.00;99770.22;5051188;28;20071;-63
2023/08/01 05:27:12;;;;;;;31.35;21.45;;;;;;;15.17;100.00;99771.84;5052563;28;20168;-63
2023/08/01 05:29:38;;;;;;;32.08;21.50;;;;;;;15.18;100.00;99773.44;5052742;28;20463;-63
2023/08/01 05:32:03;;;;;;;31.88;21.15;;;;;;;15.20;100.00;99762.75;5052828;28;20476;-63
2023/08/01 05:34:28;;;;;;;30.38;20.77;;;;;;;15.29;100.00;99762.56;5052744;28;20040;-63
2023/08/01 05:36:54;;;;;;;29.90;20.90;;;;;;;15.39;100.00;99766.75;5052633;28;20021;-63
2023/08/01 05:39:19;;;;;;;31.35;20.52;;;;;;;15.47;100.00;99765.72;5052626;28;20057;-63
2023/08/01 05:41:44;;;;;;;28.35;19.90;;;;;;;15.51;100.00;99768.56;5052450;28;20032;-64
2023/08/01 05:44:09;;;;;;;31.15;19.38;;;;;;;15.53;100.00;99766.22;5052569;28;20522;-63
2023/08/01 05:46:35;;;;;;;26.88;18.50;;;;;;;15.55;100.00;99772.25;5052548;28;20025;-63
2023/08/01 05:49:00;;;;;;;27.35;17.90;;;;;;;15.56;100.00;99779.44;5052576;28;20526;-64
2023/08/01 05:51:26;;;;;;;25.55;17.90;;;;;;;15.60;100.00;99769.97;5052481;28;20540;-63
2023/08/01 05:53:51;;;;;;;27.45;18.02;;;;;;;15.67;100.00;99783.25;5052421;28;20040;-63
2023/08/01 05:56:16;;;;;;;27.52;17.75;;;;;;;15.69;100.00;99772.53;5052256;28;20032;-63
2023/08/01 05:58:42;;;;;;;27.50;18.80;;;;;;;15.66;100.00;99787.22;5052074;28;20067;-63
2023/08/01 06:01:09;;;;;;;30.80;18.92;;;;;;;15.66;100.00;99792.81;5052089;28;20774;-63
2023/08/01 06:03:34;;;;;;;29.80;19.33;;;;;;;15.67;100.00;99788.84;5052522;28;20025;-63
2023/08/01 06:05:59;;;;;;;28.83;19.08;;;;;;;15.70;100.00;99790.09;5052067;28;20033;-63
2023/08/01 06:08:25;;;;;;;29.17;19.33;;;;;;;15.67;100.00;99797.22;5052077;28;20039;-63
2023/08/01 06:10:50;;;;;;;27.40;18.17;;;;;;;15.78;100.00;99791.00;5052068;28;20040;-63
2023/08/01 06:13:16;;;;;;;29.15;19.10;;;;;;;15.82;100.00;99795.50;5052009;28;20033;-63
2023/08/01 06:15:41;;;;;;;29.00;18.50;;;;;;;15.88;100.00;99791.28;5051972;28;20020;-63
2023/08/01 06:18:06;;;;;;;29.15;19.55;;;;;;;15.95;100.00;99798.16;5051906;28;20029;-63
2023/08/01 06:20:31;;;;;;;26.17;18.67;;;;;;;15.95;100.00;99803.75;5050766;28;20447;-63
2023/08/01 06:22:57;;;;;;;28.80;17.98;;;;;;;15.87;100.00;99800.03;5051879;28;20061;-63
2023/08/01 06:25:22;;;;;;;28.08;18.40;;;;;;;15.92;100.00;99802.50;5051854;28;20028;-63
2023/08/01 06:27:47;;;;;;;28.20;17.55;;;;;;;15.97;100.00;99807.78;5051692;28;20389;-63
2023/08/01 06:30:13;;;;;;;28.48;18.83;;;;;;;15.98;100.00;99803.00;5051649;28;20382;-63
2023/08/01 06:32:38;;;;;;;29.55;18.27;;;;;;;16.00;100.00;99798.66;5051653;28;20025;-63
2023/08/01 06:35:04;;;;;;;29.27;17.33;;;;;;;16.05;100.00;99800.34;5050214;28;20013;-63
2023/08/01 06:37:29;;;;;;;27.52;17.17;;;;;;;16.05;100.00;99790.03;5050588;28;20292;-63
2023/08/01 06:39:55;;;;;;;26.45;16.85;;;;;;;16.09;100.00;99797.63;5051522;28;20102;-63
2023/08/01 06:42:20;;;;;;;28.15;17.17;;;;;;;16.16;100.00;99798.59;5051488;28;20832;-63
2023/08/01 06:44:46;;;;;;;26.13;16.88;;;;;;;16.27;100.00;99804.34;5051679;28;20139;-63
2023/08/01 06:47:11;;;;;;;27.40;16.95;;;;;;;16.37;100.00;99802.94;5051575;28;20128;-64
2023/08/01 06:49:36;;;;;;;26.35;16.00;;;;;;;16.42;100.00;99794.25;5051470;28;20059;-63
2023/08/01 06:52:02;;;;;;;26.67;17.13;;;;;;;16.55;100.00;99808.81;5049922;28;20440;-64
2023/08/01 06:54:27;;;;;;;23.90;15.70;;;;;;;16.62;100.00;99811.75;5051341;28;20044;-63
2023/08/01 06:56:53;;;;;;;25.60;15.93;;;;;;;16.64;100.00;99823.34;5051281;28;20021;-63
2023/08/01 06:59:18;;;;;;;26.25;16.50;;;;;;;16.73;100.00;99825.91;5051091;28;20082;-63
2023/08/01 07:01:43;;;;;;;23.90;16.48;;;;;;;16.74;100.00;99832.28;5051262;28;20127;-64
2023/08/01 07:04:10;;;;;;;25.63;15.73;;;;;;;16.75;100.00;99834.72;5051270;28;20025;-64
2023/08/01 07:06:35;;;;;;;25.08;16.35;;;;;;;16.74;100.00;99830.31;5051180;28;20453;-64
2023/08/01 07:09:00;;;;;;;23.08;15.57;;;;;;;16.75;100.00;99828.31;5050975;28;20029;-64
2023/08/01 07:11:26;;;;;;;27.65;16.05;;;;;;;16.81;100.00;99829.63;5049584;28;20386;-64
2023/08/01 07:13:51;;;;;;;26.95;16.20;;;;;;;16.98;100.00;99826.34;5050892;28;20071;-64
2023/08/01 07:16:16;;;;;;;25.08;15.75;;;;;;;17.12;100.00;99827.72;5050952;28;20122;-64
2023/08/01 07:18:42;;;;;;;23.25;14.63;;;;;;;17.21;100.00;99831.06;5050856;28;20029;-64
2023/08/01 07:21:07;;;;;;;28.38;15.63;;;;;;;17.31;100.00;99832.41;5051067;28;20035;-64
2023/08/01 07:23:35;;;;;;;22.23;14.02;;;;;;;17.36;100.00;99832.09;5050947;28;20025;-64
2023/08/01 07:26:00;;;;;;;23.88;14.35;;;;;;;17.36;100.00;99822.91;5050891;28;20086;-64
2023/08/01 07:28:25;;;;;;;24.00;13.68;;;;;;;17.26;100.00;99827.13;5050924;28;20032;-64
2023/08/01 07:31:01;;;;;;;21.98;13.52;;;;;;;17.31;100.00;99826.81;5050617;28;20122;-64
2023/08/01 07:33:27;;;;;;;23.77;13.27;;;;;;;17.38;100.00;99826.94;5049419;28;20035;-64
2023/08/01 07:35:52;;;;;;;20.70;13.18;;;;;;;17.56;100.00;99826.34;5049513;28;20025;-64
2023/08/01 07:38:18;;;;;;;23.98;13.93;;;;;;;17.57;100.00;99825.19;5050573;28;20029;-64
2023/08/01 07:40:43;;;;;;;25.63;13.77;;;;;;;17.45;100.00;99829.81;5049335;28;20029;-64
2023/08/01 07:43:08;;;;;;;21.30;12.70;;;;;;;17.43;100.00;99831.38;5050728;28;20040;-64
2023/08/01 07:45:37;;;;;;;23.45;13.55;;;;;;;17.45;100.00;99837.41;5050958;28;20134;-64
2023/08/01 07:48:03;;;;;;;22.58;13.82;;;;;;;17.52;100.00;99850.69;5051295;28;20036;-64
2023/08/01 07:50:28;;;;;;;22.52;13.32;;;;;;;17.58;100.00;99844.38;5054940;28;20066;-64
2023/08/01 07:52:53;;;;;;;22.98;13.32;;;;;;;17.67;100.00;99832.09;5053608;28;20061;-64
2023/08/01 07:55:20;;;;;;;23.13;13.52;;;;;;;17.65;100.00;99837.28;5054013;28;20079;-64
2023/08/01 07:57:46;;;;;;;23.67;13.25;;;;;;;17.56;100.00;99835.56;5055170;28;20033;-64
2023/08/01 08:00:12;;;;;;;22.02;13.30;;;;;;;17.43;100.00;99829.38;5055122;28;20079;-64
2023/08/01 08:02:37;;;;;;;21.48;12.90;;;;;;;17.36;100.00;99828.50;5054823;28;20025;-64
2023/08/01 08:05:02;;;;;;;21.92;13.27;;;;;;;17.20;100.00;99828.66;5054816;28;20021;-64
2023/08/01 08:07:28;;;;;;;21.08;12.50;;;;;;;17.13;100.00;99837.72;5054733;28;20033;-65
2023/08/01 08:09:55;;;;;;;22.33;12.95;;;;;;;17.14;100.00;99830.97;5054799;28;20410;-64
2023/08/01 08:12:21;;;;;;;22.08;12.90;;;;;;;17.34;100.00;99839.25;5054829;28;20052;-64
2023/08/01 08:14:46;;;;;;;20.95;12.70;;;;;;;17.44;100.00;99849.78;5054731;28;20025;-64
2023/08/01 08:17:11;;;;;;;21.88;13.20;;;;;;;17.54;100.00;99834.31;5054545;28;20353;-64
2023/08/01 08:19:37;;;;;;;21.42;12.57;;;;;;;17.59;100.00;99840.38;5054409;28;20024;-64
2023/08/01 08:22:02;;;;;;;22.15;12.43;;;;;;;17.73;100.00;99831.38;5054361;28;20111;-64
2023/08/01 08:24:28;;;;;;;20.63;12.32;;;;;;;17.72;100.00;99837.38;5054318;28;20025;-64
2023/08/01 08:26:53;;;;;;;22.33;12.50;;;;;;;17.73;100.00;99847.38;5054270;28;20461;-64
2023/08/01 08:29:18;;;;;;;20.23;12.23;;;;;;;17.71;100.00;99852.53;5054061;28;20040;-64
2023/08/01 08:31:44;;;;;;;20.65;11.52;;;;;;;17.66;100.00;99842.47;5054191;28;20108;-64
2023/08/01 08:34:09;;;;;;;19.70;11.80;;;;;;;17.72;100.00;99843.75;5054195;28;20033;-65
2023/08/01 08:36:34;;;;;;;19.70;11.05;;;;;;;17.96;100.00;99850.09;5054136;28;20458;-65
2023/08/01 08:39:00;;;;;;;22.25;12.70;;;;;;;18.19;100.00;99860.34;5053730;28;20032;-65
2023/08/01 08:41:27;;;;;;;21.27;11.82;;;;;;;18.25;100.00;99856.03;5054043;28;20021;-65
2023/08/01 08:43:56;;;;;;;22.13;12.18;;;;;;;18.15;100.00;99854.69;5054074;28;20029;-65
2023/08/01 08:46:28;;;;;;;19.90;11.90;;;;;;;17.88;100.00;99846.34;5053966;28;20025;-65
2023/08/01 08:48:55;;;;;;;21.63;12.25;;;;;;;17.67;100.00;99846.91;5053957;28;20028;-65
2023/08/01 08:51:21;;;;;;;19.50;11.98;;;;;;;17.50;100.00;99855.84;5053805;28;20031;-64
2023/08/01 08:53:47;;;;;;;19.83;11.63;;;;;;;17.39;100.00;99853.69;5053923;28;20334;-65
2023/08/01 08:56:13;;;;;;;21.45;12.52;;;;;;;17.45;100.00;99863.38;5053576;28;20117;-65
2023/08/01 08:58:38;;;;;;;23.00;12.15;;;;;;;17.62;100.00;99866.78;5053484;28;20385;-66
2023/08/01 09:01:05;;;;;;;21.55;12.15;;;;;;;17.77;100.00;99865.81;5052769;28;20040;-65
2023/08/01 09:03:31;;;;;;;21.38;11.75;;;;;;;17.83;100.00;99873.84;5053452;28;20481;-65
2023/08/01 09:06:13;;;;;;;19.33;10.93;;;;;;;17.90;100.00;99863.56;5053284;28;20029;-64
2023/08/01 09:08:40;;;;;;;18.58;10.45;;;;;;;17.87;100.00;99874.72;5053312;28;20048;-65
2023/08/01 09:11:05;;;;;;;18.25;10.85;;;;;;;17.86;100.00;99871.09;5053199;28;20412;-65
2023/08/01 09:13:31;;;;;;;20.00;10.77;;;;;;;17.87;100.00;99877.53;5053129;28;20029;-65
2023/08/01 09:15:57;;;;;;;19.52;10.57;;;;;;;17.76;100.00;99872.59;5053251;28;20111;-64
2023/08/01 09:18:23;;;;;;;19.27;10.90;;;;;;;17.60;100.00;99872.75;5053114;28;20033;-65
2023/08/01 09:20:49;;;;;;;17.60;11.05;;;;;;;17.48;100.00;99878.56;5053332;28;20104;-65
2023/08/01 09:23:16;;;;;;;19.63;11.40;;;;;;;17.39;100.00;99881.66;5052770;28;20477;-65
2023/08/01 09:25:42;;;;;;;18.88;11.15;;;;;;;17.27;100.00;99893.88;5053357;28;20021;-64
2023/08/01 09:28:21;;;;;;;18.75;11.00;;;;;;;17.19;100.00;99886.56;5053114;28;20064;-64
2023/08/01 09:30:51;;;;;;;18.98;11.25;;;;;;;17.06;100.00;99888.72;5053325;28;20083;-64
2023/08/01 09:33:18;;;;;;;20.63;11.73;;;;;;;17.03;100.00;99883.06;5051507;28;20370;-66
2023/08/01 09:35:45;;;;;;;20.48;11.38;;;;;;;17.04;100.00;99887.47;5053008;28;20456;-64
2023/08/01 09:38:14;;;;;;;19.85;12.18;;;;;;;17.14;100.00;99886.84;5053004;28;20033;-63
2023/08/01 09:40:40;;;;;;;20.33;11.80;;;;;;;17.24;100.00;99889.00;5053067;28;20104;-64
2023/08/01 09:43:05;;;;;;;20.15;11.45;;;;;;;17.34;100.00;99892.34;5051488;28;20029;-64
2023/08/01 09:45:31;;;;;;;19.80;11.13;;;;;;;17.38;100.00;99893.22;5052718;28;20027;-64
2023/08/01 09:47:56;;;;;;;20.20;11.38;;;;;;;17.44;100.00;99900.09;5051289;28;20037;-64
2023/08/01 09:50:23;;;;;;;19.90;11.70;;;;;;;17.41;100.00;99901.66;5052801;28;20025;-64
2023/08/01 09:52:54;;;;;;;21.77;11.48;;;;;;;17.50;100.00;99892.19;5052801;28;20031;-64
2023/08/01 09:55:31;;;;;;;20.02;11.20;;;;;;;17.61;100.00;99890.38;5052773;28;20021;-64
2023/08/01 09:57:58;;;;;;;20.92;11.60;;;;;;;17.73;100.00;99906.09;5052422;28;20029;-64
2023/08/01 10:00:29;;;;;;;18.23;10.35;;;;;;;17.66;100.00;99901.22;5052490;28;20134;-64
2023/08/01 10:03:01;;;;;;;21.88;10.73;;;;;;;17.76;100.00;99900.56;5052640;28;20057;-65
2023/08/01 10:05:32;;;;;;;20.15;11.20;;;;;;;17.82;100.00;99903.84;5051254;28;20060;-64
2023/08/01 10:08:00;;;;;;;21.65;11.40;;;;;;;17.81;100.00;99907.81;5051268;28;20239;-64
2023/08/01 10:10:25;;;;;;;20.73;11.60;;;;;;;17.74;100.00;99907.72;5052364;28;20059;-65
2023/08/01 10:12:52;;;;;;;21.48;11.82;;;;;;;17.70;100.00;99912.44;5052378;28;20021;-64
2023/08/01 10:15:18;;;;;;;21.73;11.73;;;;;;;17.76;100.00;99924.91;5052213;28;20040;-64
2023/08/01 10:17:44;;;;;;;18.60;10.20;;;;;;;17.93;100.00;99920.75;5052191;28;20029;-64
2023/08/01 10:20:11;;;;;;;20.42;10.75;;;;;;;18.07;100.00;99920.16;5052182;28;20094;-65
2023/08/01 10:22:38;;;;;;;20.55;11.13;;;;;;;18.19;100.00;99917.13;5052176;28;20496;-65
2023/08/01 10:25:05;;;;;;;19.90;10.63;;;;;;;18.32;100.00;99923.28;5050783;28;20032;-64
2023/08/01 10:27:30;;;;;;;19.85;10.75;;;;;;;18.50;100.00;99926.31;5052037;28;20029;-64
2023/08/01 10:29:57;;;;;;;18.92;10.98;;;;;;;18.66;99.97;99914.06;5051873;28;20056;-64
2023/08/01 10:32:30;;;;;;;21.73;11.00;;;;;;;18.77;100.00;99917.78;5051976;28;20112;-65
2023/08/01 10:34:56;;;;;;;20.50;11.00;;;;;;;19.05;99.10;99927.66;5051949;28;20509;-64
2023/08/01 10:37:21;;;;;;;20.60;11.27;;;;;;;19.26;96.34;99918.63;5051877;28;20079;-65
2023/08/01 10:39:59;;;;;;;20.05;11.13;;;;;;;19.36;96.37;99913.50;5051611;28;20120;-65
2023/08/01 10:42:25;;;;;;;19.45;10.85;;;;;;;19.21;93.41;99919.00;5051562;28;20508;-65
2023/08/01 10:44:50;;;;;;;21.83;10.77;;;;;;;19.14;93.76;99918.91;5051774;28;20159;-65
2023/08/01 10:47:26;;;;;;;21.35;11.55;;;;;;;19.07;95.58;99928.09;5051592;28;20469;-65
2023/08/01 10:49:52;;;;;;;18.70;11.55;;;;;;;18.81;93.79;99932.59;5051658;28;20134;-65
2023/08/01 10:52:27;;;;;;;18.52;11.00;;;;;;;18.77;96.35;99937.38;5051532;28;20025;-65
2023/08/01 10:55:00;;;;;;;19.25;10.70;;;;;;;18.75;95.65;99936.16;5051631;28;20113;-65
2023/08/01 10:57:30;;;;;;;18.42;10.85;;;;;;;18.84;94.33;99933.84;5051405;28;20039;-65
2023/08/01 10:59:57;;;;;;;17.60;10.60;;;;;;;18.93;93.56;99931.56;5049940;28;20017;-65
2023/08/01 11:02:27;;;;;;;21.05;11.20;;;;;;;19.00;93.36;99919.59;5051296;28;20021;-65
2023/08/01 11:05:07;;;;;;;19.27;11.50;;;;;;;19.12;93.06;99924.13;5051295;28;20376;-66